HONGKONG AND SHANGHAI BANKING CORPORATION LIMITED (THE)

start date:
end date:
Performance period years

Role: Receiving Bank

This is a one-time role. Returns are from the appointment date to the earliest of the end of the specified performance period and the last trading date. CAGR is the annualised return and is not shown for periods under 180 days. Relative returns are to the Tracker Fund of HK (2800), starting from the latest of 12-Nov-1999, the appointment date and the chosen start date.

Some data are hidden to fit your display. Rotate?

Client Added Total
return
CAGR
total
return
CAGR
relative
return
1 DAISHO MICROLINE HOLDINGS LIMITED 1990-01-15 -69.74% -69.76%
2 SHOUGANG FUSHAN RESOURCES GROUP LIMITED 1990-09-18 -68.06% -68.08%
3 CHINA WAH YAN HEALTHCARE LIMITED 1990-10-09 -41.99% -42.01%
4 KING STONE ENERGY GROUP LIMITED 1990-11-13 -38.12% -38.14%
5 Doyen International Holdings Limited 1990-11-26 -32.08% -32.09%
6 TECHTRONIC INDUSTRIES COMPANY LIMITED 1990-11-30 -38.13% -38.15%
7 GOLDEN RESOURCES DEVELOPMENT INTERNATIONAL LIMITED 1991-01-11 -62.87% -62.90%
8 ASIA TELE-NET AND TECHNOLOGY CORPORATION LIMITED 1991-01-15 -13.89% -13.90%
9 MEDIA CHINESE INTERNATIONAL LIMITED 1991-03-01 -48.84% -48.86%
10 CNT GROUP LIMITED 1991-05-07 -53.71% -53.74%
11 BOE Varitronix Limited 1991-06-11 5.06% 5.06%
12 LAM SOON FOOD INDUSTRIES LIMITED 1991-07-03 -44.29% -44.31%
13 China Medical & HealthCare Group Limited 1991-07-16 -27.13% -27.14%
14 Hsin Chong Group Holdings Limited 1991-07-24 -26.08% -26.09%
15 YAU LEE HOLDINGS LIMITED 1991-08-08 -48.68% -48.71%
16 ORIENT POWER HOLDINGS LIMITED 1991-08-16 -58.02% -58.05%
17 LEEFUNG HOLDINGS LIMITED 1991-09-03 -8.30% -8.31%
18 Public Financial Holdings Limited 1991-09-16 -33.48% -33.50%
19 FAIRWOOD HOLDINGS LIMITED (BM) 1991-09-20 -76.54% -76.56%
20 KING PACIFIC INTERNATIONAL HOLDINGS LIMITED 1991-10-04 -30.13% -30.15%
21 TERMBRAY INDUSTRIES INTERNATIONAL (HOLDINGS) LIMITED 1991-10-08 -43.58% -43.60%
22 CARRIANNA GROUP HOLDINGS COMPANY LIMITED 1991-10-14 -48.86% -48.88%
23 CCT Fortis Holdings Limited 1991-10-25 -31.65% -31.66%
24 JINHUI HOLDINGS COMPANY LIMITED 1991-11-21 -32.28% -32.30%
25 AVIC International Holding (HK) Limited 1991-11-26 15.62% 15.64%
26 COSCO SHIPPING International (Hong Kong) Co., Ltd. 1992-01-21 -57.74% -57.76%
27 PT International Development Corporation Limited 1992-01-28 -65.43% -65.45%
28 HUNG HING PRINTING GROUP LIMITED 1992-02-27 -39.91% -39.93%
29 China Shandong Hi-Speed Financial Group Limited 1992-03-27 -15.13% -15.14%
30 CSI Properties Limited (BM) 1992-03-30 -47.83% -47.85%
31 GOME Retail Holdings Limited 1992-03-31 -42.69% -42.71%
32 Emperor Culture Group Limited 1992-05-22 -64.41% -64.43%
33 LI & FUNG LIMITED 1992-06-09 -2.16% -2.17%
34 Digital Domain Holdings Limited 1992-06-19 -64.24% -64.27%
35 China Merchants Port Holdings Company Limited 1992-06-30 -55.92% -55.94%
36 WINTON HOLDINGS (BERMUDA) LIMITED 1992-07-28 -25.59% -25.60%
37 ASIA ENERGY LOGISTICS GROUP LIMITED 1992-08-03 -74.75% -74.77%
38 SIS INTERNATIONAL HOLDINGS LIMITED 1992-08-04 -51.47% -51.49%
39 GOLDLION HOLDINGS LIMITED 1992-09-02 -64.08% -64.11%
40 RYODEN DEVELOPMENT LIMITED 1992-09-08 -59.46% -59.48%
41 PICO FAR EAST HOLDINGS LIMITED 1992-09-14 -44.05% -44.07%
42 China Properties Investment Holdings Limited 1992-09-15 -78.85% -78.87%
43 BALL ASIA PACIFIC LIMITED 1992-09-22 -24.29% -24.30%
44 IDG Energy Investment Limited 1992-09-22 -53.49% -53.51%
45 PERFECTECH INTERNATIONAL HOLDINGS LIMITED 1992-10-08 -32.72% -32.74%
46 SHANGHAI ZENDAI PROPERTY LIMITED 1992-10-13 -40.63% -40.65%
47 G-VISION INTERNATIONAL (HOLDINGS) LIMITED 1992-10-17 -50.44% -50.47%
48 CHINA TRAVEL INTERNATIONAL INVESTMENT HONG KONG LIMITED 1992-10-27 -58.60% -58.63%
49 LE SAUNDA HOLDINGS LIMITED 1992-11-26 -71.81% -71.84%
50 SEEC MEDIA GROUP LIMITED 1992-12-18 -81.18% -81.20%
51 Rare Earth Magnesium Technology Group Holdings Limited 1993-01-12 -79.13% -79.15%
52 LUNG KEE (BERMUDA) HOLDINGS LIMITED 1993-02-16 -20.85% -20.86%
53 WORLD HOUSEWARE (HOLDINGS) LIMITED 1993-03-29 -29.98% -30.00%
54 Beijing Enterprises Water Group Limited 1993-03-30 -74.76% -74.78%
55 SHANGRI-LA ASIA LIMITED 1993-05-31 -8.57% -8.57%
56 CENTURY LEGEND (HOLDINGS) LIMITED 1993-06-22 -74.45% -74.48%
57 SINGAMAS CONTAINER HOLDINGS LIMITED 1993-06-23 -14.73% -14.74%
58 CIL HOLDINGS LIMITED 1993-07-06 -78.20% -78.22%
59 SINOPEC SHANGHAI PETROCHEMICAL COMPANY LIMITED 1993-07-06 -34.17% -34.19%
60 STONE GROUP HOLDINGS LIMITED 1993-07-30 -68.53% -68.56%
61 PYI Corporation Limited 1993-09-07 -27.78% -27.80%
62 Power Financial Group Limited 1993-09-27 -64.51% -64.53%
63 SIU-FUNG CERAMICS HOLDINGS LIMITED 1993-10-12 -60.48% -60.50%
64 YAOHAN INTERNATIONAL HOLDINGS LIMITED 1993-10-14 -33.99% -34.01%
65 MAANSHAN IRON & STEEL COMPANY LIMITED 1993-10-20 -64.18% -64.21%
66 Planetree International Development Limited 1993-10-27 -53.72% -53.75%
67 Skyfame Realty (Holdings) Limited 1993-11-02 -78.64% -78.67%
68 ESPRIT HOLDINGS LIMITED (BM) 1993-11-23 -8.52% -8.52%
69 TeaM Energy Asia-Pacific Limited 1993-11-24 22.84% 22.86%
70 Welling Holding Limited 1993-12-03 -52.25% -52.27%
71 Summit Ascent Holdings Limited 1993-12-17 -46.76% -46.78%
72 THEME INTERNATIONAL HOLDINGS LIMITED 1994-01-10 -33.23% -33.25%
73 China Renewable Energy Investment Limited 1994-01-11 -60.55% -60.58%
74 AEON STORES (HONG KONG) CO., LIMITED 1994-01-18 -65.78% -65.91%
75 Carnival Group International Holdings Limited 1994-01-27 -35.19% -35.20%
76 VITASOY INTERNATIONAL HOLDINGS LIMITED 1994-03-15 6.92% 6.92%
77 NGAI HING HONG COMPANY LIMITED 1994-04-08 -30.30% -30.32%
78 Superactive Group Company Limited 1994-04-11 -31.79% -31.81%
79 NOBLE GROUP LIMITED (BM) 1994-05-17 -16.23% -16.24%
80 CSPC PHARMACEUTICAL GROUP LIMITED 1994-06-02 -9.00% -9.00%
81 SINOCAN HOLDINGS LIMITED 1994-06-03 39.48% 39.51%
82 CHINA-HONGKONG PHOTO PRODUCTS HOLDINGS LIMITED 1994-09-06 113.10% 113.21%
83 KINGMAKER FOOTWEAR HOLDINGS LIMITED 1994-09-13 10.14% 10.15%
84 Success Dragon International Holdings Limited 1994-09-28 11.84% 11.84%
85 PCCW LIMITED 1994-09-30 -23.92% -23.94%
86 China Resources Gas Group Limited 1994-10-20 -35.73% -35.75%
87 Orange Sky Golden Harvest Entertainment (Holdings) Limited 1994-11-08 -24.61% -24.63%
88 EASYKNIT INTERNATIONAL HOLDINGS LIMITED 1995-01-16 214.54% 214.79%
89 SYMPHONY HOLDINGS LIMITED (BM) 1995-02-14 -56.08% -56.11%
90 Hybrid Kinetic Group Limited 1995-03-21 32.50% 32.73%
91 Talent Property Group Limited 1995-07-25 31.89% 31.92%
92 Tai United Holdings Limited 1995-09-19 13.02% 13.03%
93 China Automobile New Retail (Holdings) Limited (BM) 1995-09-26 49.70% 49.74%
94 GILBERT HOLDINGS LIMITED 1995-09-27 -19.38% -19.39%
95 China Resources Ng Fung Limited 1995-10-10 42.36% 42.39%
96 NEW WORLD TMT LIMITED 1995-10-17 45.38% 45.57%
97 SAMSON PAPER HOLDINGS LIMITED 1995-11-14 30.30% 30.42%
98 Taung Gold International Limited 1995-11-29 90.73% 90.81%
99 China Grand Pharmaceutical and Healthcare Holdings Limited 1995-12-07 -25.64% -25.66%
100 FOUNDER HOLDINGS LIMITED 1995-12-12 59.57% 59.63%
101 Hanergy Thin Film Power Group Limited 1996-01-11 -1.13% -1.13%
102 China Best Group Holding Limited 1996-03-12 304.03% 304.42%
103 HENDERSON CHINA HOLDINGS LIMITED 1996-03-19 -37.70% -37.80%
104 ELEGANCE OPTICAL INTERNATIONAL HOLDINGS LIMITED 1996-03-26 36.25% 36.28%
105 VICTORY CITY INTERNATIONAL HOLDINGS LIMITED 1996-04-26 -11.91% -11.92%
106 ASIA SATELLITE TELECOMMUNICATIONS HOLDINGS LIMITED 1996-06-10 -9.64% -9.65%
107 ROAD KING INFRASTRUCTURE LIMITED 1996-06-24 -20.13% -20.14%
108 CK Infrastructure Holdings Limited 1996-07-04 106.95% 107.06%
109 Kingston Financial Group Limited 1996-07-09 57.42% 57.47%
110 Haitong International Securities Group Limited 1996-07-23 195.20% 195.42%
111 KERRY PROPERTIES LIMITED 1996-07-23 14.14% 14.15%
112 Glorious Sun Enterprises Limited 1996-09-05 38.84% 38.99%
113 KWOON CHUNG BUS HOLDINGS LIMITED 1996-09-13 85.21% 85.29%
114 Sinofert Holdings Limited 1996-09-17 7.53% 7.54%
115 PEGASUS INTERNATIONAL HOLDINGS LIMITED 1996-10-01 41.93% 42.23%
116 SMARTONE TELECOMMUNICATIONS HOLDINGS LIMITED 1996-10-22 3.03% 3.03%
117 CHINA RESOURCES LAND LIMITED 1996-10-29 -7.37% -7.40%
118 CITYBUS GROUP LIMITED 1996-11-12 55.47% 55.71%
119 AMCO United Holding Limited 1996-11-15 -49.09% -49.11%
120 MIRABELL INTERNATIONAL HOLDINGS LIMITED 1996-11-25 -57.83% -57.96%
121 SOLARTECH INTERNATIONAL HOLDINGS LIMITED 1996-12-02 12.11% 12.12%
122 K & P INTERNATIONAL HOLDINGS LIMITED 1996-12-12 -28.74% -28.75%
123 PERENNIAL INTERNATIONAL LIMITED 1996-12-13 -31.19% -31.21%
124 Lamtex Holdings Limited 1996-12-16 -24.19% -24.37%
125 DeTai New Energy Group Limited 1996-12-19 -22.47% -22.54%
126 Paradise Entertainment Limited (BM) 1997-01-07 -78.17% -78.19%
127 SOCAM Development Limited 1997-01-22 -42.32% -42.34%
128 Man Yue Technology Holdings Limited 1997-02-18 -31.15% -31.17%
129 Bel Global Resources Holdings Limited 1997-02-25 -67.20% -67.33%
130 NWS HOLDINGS LIMITED 1997-04-15 -29.46% -29.54%
131 KIN YAT HOLDINGS LIMITED 1997-04-16 -64.80% -64.82%
132 LUK FOOK HOLDINGS (INTERNATIONAL) LIMITED 1997-04-22 -68.18% -68.21%
133 REGENT PACIFIC GROUP LIMITED 1997-05-06 12.97% 12.98%
134 China Environmental Resources Group Limited 1997-05-20 -86.04% -86.06%
135 DESON DEVELOPMENT INTERNATIONAL HOLDINGS LIMITED 1997-05-27 -80.93% -80.95%
136 Jiangxi Copper Company Limited 1997-06-02 -76.93% -76.95%
137 SA SA INTERNATIONAL HOLDINGS LIMITED 1997-06-03 -62.89% -63.01%
138 Green Energy Group Limited 1997-06-17 -77.65% -77.67%
139 Jiangsu Expressway Company Limited 1997-06-18 -44.51% -44.62%
140 China Energine International (Holdings) Limited 1997-07-29 -51.43% -51.46%
141 CITIC RESOURCES HOLDINGS LIMITED 1997-08-26 -84.26% -84.28%
142 HengTen Networks Group Limited 1997-09-10 -74.14% -74.16%
143 MAN SANG INTERNATIONAL LIMITED 1997-09-15 -77.06% -77.17%
144 TCC INTERNATIONAL HOLDINGS LIMITED 1997-09-23 -41.01% -41.12%
145 China Smarter Energy Group Holdings Limited 1997-09-25 -73.97% -73.99%
146 Anhui Conch Cement Company Limited 1997-10-07 -49.03% -49.06%
147 China Mobile Limited (HK) 1997-10-13 33.18% 33.20%
148 LAI FUNG HOLDINGS LIMITED 1997-11-18 -86.48% -86.57%
149 HAIER ELECTRONICS GROUP CO., LTD. 1997-12-05 108.11% 108.21%
150 Asia Coal Limited 1997-12-08 -56.78% -56.80%
151 VICTORY GROUP LIMITED 1998-02-04 -27.90% -27.98%
152 ASIA ALUMINUM HOLDINGS LIMITED 1998-03-24 2.04% 2.05%
153 COMPUTER AND TECHNOLOGIES HOLDINGS LIMITED 1998-05-05 2.59% 2.59%
154 HOPSON DEVELOPMENT HOLDINGS LIMITED 1998-05-18 -64.11% -64.14%
155 SINOLINK WORLDWIDE HOLDINGS LIMITED 1998-05-26 -43.55% -43.57%
156 Beautiful China Holdings Company Limited 1998-07-08 33.37% 33.39%
157 POLYTEC ASSET HOLDINGS LIMITED 1998-09-01 -58.11% -58.13%
158 APAC Resources Limited 1998-12-15 0.90% 0.90%
159 3D-GOLD Jewellery Holdings Limited 1999-03-04 93.68% 93.77%
160 Guoan International Limited 1999-03-23 563.04% 567.36%
161 TongChuang Holdings Limited 1999-06-22 -62.87% -62.89%
162 NEW WORLD CHINA LAND LIMITED 1999-07-06 -71.60% -71.72%
163 Universe Entertainment and Culture Group Company Limited 1999-07-06 141.87% 142.02%
164 SUNWAY INTERNATIONAL HOLDINGS LIMITED 1999-08-25 39.06% 39.22%
165 UNITY INVESTMENTS HOLDINGS LIMITED 1999-10-12 -25.00% -25.01%
166 Macrolink Capital Holdings Limited 1999-11-23 0.72% 0.73% 6.87%
167 SIIC MEDICAL SCIENCE AND TECHNOLOGY (GROUP) LIMITED 1999-11-23 -51.84% -51.87% -49.91%
168 National Agricultural Holdings Limited 1999-12-07 -39.50% -39.60% -37.64%
169 Shenzhou Space Park Group Limited 2000-01-06 -54.26% -54.28% -56.34%
170 FAR EASTERN POLYCHEM INDUSTRIES LIMITED 2000-01-20 -64.06% -64.09% -65.79%
171 TOM GROUP LIMITED 2000-02-18 -72.90% -72.93% -69.43%
172 Sino Splendid Holdings Limited 2000-02-28 -94.22% -94.23% -93.03%
173 SUNDAY COMMUNICATIONS LIMITED 2000-03-06 -86.15% -86.17% -83.83%
174 Sing Pao Media Enterprises Limited 2000-05-23 -24.00% -24.01% -16.38%
175 Zhongchang International Holdings Group Limited 2000-05-29 -54.84% -54.86% -46.11%
176 Yu Tak International Holdings Limited 2000-06-20 -49.65% -49.76% -39.44%
177 HENDERSON CYBER LIMITED 2000-07-04 -47.97% -48.08% -30.01%
178 Hong Kong Finance Investment Holding Group Limited 2000-08-23 197.55% 198.66% 384.14%
179 MTR CORPORATION LIMITED 2000-09-25 -9.86% -9.87% 38.04%
180 GLOBAL BIO-CHEM TECHNOLOGY GROUP COMPANY LIMITED 2001-03-07 217.77% 219.04% 277.37%
181 Bison Finance Group Limited 2001-06-19 -15.62% -15.63% -0.97%
182 HKBridge Financial Holdings Limited 2002-06-11 -37.09% -37.19% -36.02%
183 CK LIFE SCIENCES INT'L., (HOLDINGS) INC. 2002-07-04 -18.60% -18.62% -19.88%
184 BOC HONG KONG (HOLDINGS) LIMITED (HK) 2002-07-15 -0.96% -0.96% -5.28%
185 CHINA TELECOM CORPORATION LIMITED 2002-10-25 71.63% 71.95% 33.41%
186 CHINA TELECOM CORPORATION LIMITED 2002-11-06 71.63% 71.95% 33.41%
187 Regal International Airport Group Company Limited 2002-11-06 36.35% 36.38% 7.20%
188 SHANGHAI FORTE LAND CO., LTD. 2003-02-25 1.15% 1.15% -3.90%
189 BEIJING CAPITAL LAND LTD. 2003-06-10 -11.77% -11.78% -28.42%
190 LIANHUA SUPERMARKET HOLDINGS COMPANY LIMITED 2003-06-17 85.17% 85.56% 42.54%
191 COMBA TELECOM SYSTEMS HOLDINGS LIMITED 2003-07-03 81.80% 81.87% 47.91%
192 Synergis Holdings Limited 2003-09-29 20.26% 20.28% 3.96%
193 CHINA LIFE INSURANCE COMPANY LIMITED 2003-12-08 23.76% 23.77% 4.50%
194 WEICHAI POWER CO., LTD. 2004-02-26 92.91% 93.00% 76.09%
195 TOM ONLINE INC. 2004-03-02 -14.29% -14.29% -21.80%
196 SEMICONDUCTOR MANUFACTURING INTERNATIONAL CORPORATION 2004-03-08 -36.57% -36.59% -42.80%
197 LIFESTYLE INTERNATIONAL HOLDINGS LIMITED 2004-03-31 49.09% 49.13% 32.83%
198 NAM TAI ELECTRONIC & ELECTRICAL PRODUCTS LIMITED 2004-04-16 -24.55% -24.57% -36.16%
199 PING AN INSURANCE (GROUP) COMPANY OF CHINA, LTD. 2004-06-14 20.99% 21.01% 0.54%
200 DAH SING BANKING GROUP LIMITED 2004-06-18 17.74% 17.76% -1.71%
201 PACIFIC BASIN SHIPPING LIMITED 2004-06-30 54.78% 54.82% 23.97%
202 HUTCHISON TELECOMMUNICATIONS INTERNATIONAL LIMITED 2004-09-30 81.20% 81.57% 58.07%
203 INTEGRATED DISTRIBUTION SERVICES GROUP LIMITED 2004-11-24 98.15% 98.24% 78.90%
204 Link Real Estate Investment Trust 2004-11-25 39.47% 39.63% 6.32%
205 Air China Limited 2004-12-03 -21.71% -21.72% -29.62%
206 DYNASTY FINE WINES GROUP LIMITED 2005-01-17 3.71% 3.71% -12.06%
207 Shanghai Electric Group Company Limited 2005-04-18 75.44% 75.51% 41.34%
208 China Shenhua Energy Company Limited 2005-06-02 63.09% 63.15% 42.11%
209 Bank of Communications Co., Ltd. 2005-06-13 70.81% 70.87% 48.16%
210 COSCO SHIPPING Holdings Co., Ltd. 2005-06-20 8.00% 8.00% -8.31%
211 AAC TECHNOLOGIES HOLDINGS INC. 2005-07-28 139.68% 139.83% 100.83%
212 ONE MEDIA GROUP LIMITED (KY) 2005-09-30 -60.08% -60.10% -68.64%
213 CHINA CONSTRUCTION BANK CORPORATION 2005-10-14 50.82% 50.86% 14.75%
214 Link Real Estate Investment Trust 2005-11-14 39.47% 39.63% 6.32%
215 Camsing International Holding Limited 2005-11-30 -41.97% -41.99% -55.63%
216 Prosperity Real Estate Investment Trust 2005-12-05 -29.78% -29.87% -46.38%
217 Yuexiu Real Estate Investment Trust 2005-12-12 -7.26% -7.27% -28.41%
218 Shanghai Prime Machinery Company Limited 2006-04-13 13.00% 13.01% -10.63%
219 Tianjin Port Development Holdings Limited 2006-05-12 166.78% 167.68% 98.47%
220 BANK OF CHINA LIMITED 2006-05-18 12.35% 12.36% -17.52%
221 SHUI ON LAND LIMITED 2006-06-12 57.04% 57.09% 0.22%
222 CHINA MERCHANTS BANK CO., LTD. 2006-09-08 194.85% 195.95% 97.04%
223 SHUI ON LAND LIMITED 2006-09-20 57.04% 57.09% 0.22%
224 COMPUTIME GROUP LIMITED 2006-09-25 -43.92% -43.94% -65.70%
225 Industrial and Commercial Bank of China Limited 2006-10-16 104.23% 104.73% 20.08%
226 Kingboard Laminates Holdings Limited 2006-11-24 -37.39% -37.41% -60.23%
227 Neo-Neon Holdings Limited 2006-12-04 -25.45% -25.53% -49.62%
228 Sunlight Real Estate Investment Trust 2006-12-08 1.46% 1.46% -31.50%
229 Meadville Holdings (BVI) Limited 2007-01-22 -17.74% -17.79% -31.46%
230 Samling Global Limited 2007-02-23 -47.27% -47.29% -58.19%
231 Regal Real Estate Investment Trust 2007-03-19 -30.81% -30.90% -42.58%
232 Country Garden Holdings Company Limited 2007-04-03 -11.15% -11.19% -26.56%
233 China CITIC Bank Corporation Limited 2007-04-16 -23.95% -24.02% -40.55%
234 BELLE INTERNATIONAL HOLDINGS LIMITED 2007-05-09 4.38% 4.38% -15.06%
235 United Laboratories International Holdings Limited (The) 2007-06-04 43.21% 43.39% 28.98%
236 RREEF China Commercial Trust 2007-06-11 -15.68% -15.73% -20.61%
237 New World Department Store China Limited 2007-06-28 6.89% 6.90% 7.59%
238 Lotte Mart China Co., Ltd. 2007-06-29 -36.47% -36.49% -33.11%
239 China Aoyuan Group Limited 2007-09-21 -89.03% -89.04% -80.86%
240 SOHO CHINA LIMITED 2007-09-21 -74.18% -74.30% -58.71%
241 China Dongxiang (Group) Co., Ltd. 2007-09-25 -58.45% -58.47% -28.49%
242 Bosideng International Holdings Limited 2007-09-27 -68.15% -68.17% -39.92%
243 Alibaba.com Limited 2007-10-23 -87.59% -87.61% -76.53%
244 Value Partners Group Limited 2007-11-08 -78.34% -78.36% -57.67%
245 Uni-President China Holdings Ltd. 2007-12-04 -64.21% -64.24% -40.13%
246 Maoye International Holdings Limited 2008-01-18 -52.09% -52.11% -27.38%
247 China Railway Construction Corporation Limited 2008-02-29 -20.42% -20.43% 35.20%
248 Want Want China Holdings Limited 2008-03-11 23.86% 23.88% 90.21%
249 Maoye International Holdings Limited 2008-04-21 -52.09% -52.11% -27.38%
250 Pou Sheng International (Holdings) Limited 2008-05-26 -48.66% -48.78% -35.54%
251 CRRC Corporation Limited 2008-08-08 71.99% 72.05% 65.95%
252 China Dili Group 2008-09-30 39.34% 39.37% -13.23%
253 361 Degrees International Limited 2009-06-18 47.22% 47.26% 31.38%
254 BaWang International (Group) Holding Limited 2009-06-22 84.12% 84.51% 64.68%
255 Metallurgical Corporation of China Ltd. 2009-09-11 -26.56% -26.58% -31.88%
256 Peak Sport Products Co., Limited 2009-09-16 71.01% 71.07% 56.26%
257 CHINA SOUTH CITY HOLDINGS LIMITED 2009-09-17 -24.70% -24.72% -31.39%
258 Sany Heavy Equipment International Holdings Company Limited 2009-11-12 75.60% 75.67% 68.34%
259 China Minsheng Banking Corp., Ltd. 2009-11-13 -5.27% -5.27% -10.24%
260 Kaisa Group Holdings Ltd. 2009-11-26 -36.05% -36.07% -41.41%
261 PCD STORES (GROUP) LIMITED 2009-12-03 -4.44% -4.44% -11.27%
262 Shengli Oil & Gas Pipe Holdings Limited 2009-12-09 -18.39% -18.45% -25.90%
263 International Mining Machinery Holdings Limited 2010-01-29 41.71% 41.74% 21.57%
264 Real Nutriceutical Group Limited 2010-02-08 111.55% 112.09% 74.48%
265 Zhongsheng Group Holdings Limited 2010-03-16 30.41% 30.53% 15.51%
266 L'Occitane International S.A. 2010-04-26 30.42% 30.54% 9.77%
267 SWIRE PROPERTIES LIMITED 2010-05-03 63.94% 63.99% 34.26%
268 NVC Lighting Holding Limited 2010-05-07 101.52% 101.61% 66.34%
269 Youyuan International Holdings Limited 2010-05-14 72.62% 72.68% 42.34%
270 SOUND GLOBAL LTD. 2010-06-22 -48.23% -48.25% -36.13%
271 Chiho Environmental Group Limited 2010-06-28 160.63% 160.80% 140.56%
272 AGRICULTURAL BANK OF CHINA LIMITED 2010-06-30 22.67% 22.75% 10.83%
273 Hang Pin Living Technology Company Limited 2010-09-17 -40.00% -40.11% -19.51%
274 Dorsett Hospitality International Limited 2010-09-28 -38.07% -38.09% -23.22%
275 Mongolian Mining Corporation 2010-09-28 -4.76% -4.77% 15.41%
276 IRC LIMITED 2010-09-30 -33.94% -33.96% -16.18%
277 Boer Power Holdings Limited 2010-10-07 -70.34% -70.37% -62.43%
278 AIA Group Limited 2010-10-18 5.01% 5.03% 17.15%
279 EVERGREEN INTERNATIONAL HOLDINGS LIMITED 2010-10-22 -60.77% -60.80% -53.05%
280 CITIC Dameng Holdings Limited 2010-11-08 -56.16% -56.19% -45.70%
281 CHINA GOLD INTERNATIONAL RESOURCES CORP. LTD. 2010-11-17 -48.08% -48.10% -38.48%
282 Greatview Aseptic Packaging Company Limited 2010-11-26 -45.93% -45.96% -34.64%
283 Chongqing Rural Commercial Bank Co., Ltd. 2010-12-03 -20.00% -20.01% -4.11%
284 Health and Happiness (H&H) International Holdings Limited 2010-12-03 18.80% 18.87% 42.89%
285 Top Spring International Holdings Limited 2011-03-11 -39.94% -39.96% -36.50%
286 Far East Horizon Limited 2011-03-18 -11.06% -11.07% -2.09%
287 Hui Xian Real Estate Investment Trust 2011-04-11 -16.19% -16.24% -7.51%
288 Billion Industrial Holdings Limited 2011-05-05 -20.31% -20.32% -7.43%
289 SAMSONITE INTERNATIONAL S.A. 2011-06-03 -8.70% -8.70% 0.22%
290 PRADA S.P.A. 2011-06-13 27.25% 27.36% 43.13%
291 China Outfitters Holdings Limited 2011-06-20 -1.49% -1.49% -20.29%
292 Future Development Holdings Limited (KY) 2011-06-30 -12.28% -12.32% -3.17%
293 WINOX HOLDINGS LIMITED 2011-06-30 -65.85% -65.88% -63.05%
294 SUN ART RETAIL GROUP LIMITED 2011-07-04 -11.85% -11.86% 1.30%
295 Tenfu (Cayman) Holdings Company Limited 2011-09-14 -7.80% -7.80% -24.92%
296 China Hanking Holdings Limited 2011-09-20 2.28% 2.29% -16.40%
297 CITIC Securities Company Limited 2011-09-22 12.06% 12.07% -10.90%
298 TECHNOVATOR INTERNATIONAL LIMITED 2011-10-17 10.68% 10.69% -2.36%
299 HKT Limited (KY) 2011-11-16 66.76% 66.81% 35.78%
300 SITOY GROUP HOLDINGS LIMITED 2011-11-24 77.66% 77.73% 46.17%
301 China Outfitters Holdings Limited 2011-11-29 -1.49% -1.49% -20.29%
302 New China Life Insurance Company Ltd. 2011-12-02 15.50% 15.51% -10.87%
303 Chow Tai Fook Jewellery Group Limited 2011-12-05 -9.19% -9.20% -29.94%
304 Haitong Securities Co., Ltd. 2011-12-05 3.77% 3.79% -7.54%
305 Perfect Shape Medical Limited 2011-12-13 -38.40% -38.50% -46.85%
306 China Tianrui Group Cement Company Limited 2011-12-14 -18.71% -18.77% -34.86%
307 Kinetic Mines and Energy Limited 2012-03-13 -50.00% -50.12% -54.87%
308 Haitong Securities Co., Ltd. 2012-04-17 3.77% 3.79% -7.54%
309 China Yongda Automobiles Services Holdings Limited 2012-05-18 7.39% 7.40% -6.51%
310 China Yongda Automobiles Services Holdings Limited 2012-06-29 7.39% 7.40% -6.51%
311 People's Insurance Company (Group) of China Limited (The) 2012-11-26 6.07% 6.09% -4.03%
312 China Silver Group Limited 2012-12-14 -25.39% -25.46% -29.44%
313 PanAsialum Holdings Company Limited 2013-01-23 -59.92% -59.95% -57.73%
314 Xinchen China Power Holdings Limited 2013-02-28 94.47% 94.56% 95.05%
315 Langham Hospitality Investments Limited 2013-05-16 -15.49% -15.50% -20.53%
316 Tenwow International Holdings Limited 2013-09-05 -14.22% -14.23% -21.62%
317 Huishang Bank Corporation Limited 2013-10-31 -0.50% -0.50% -8.10%
318 HK Electric Investments Limited 2014-01-16 1.03% 1.03% -12.46%
319 Crystal International Group Limited 2017-10-23 -46.22% -46.33% -43.98%
320 PING AN HEALTHCARE AND TECHNOLOGY COMPANY LIMITED 2018-04-23 -27.74% -27.82% -30.75%
Average -6.76% -2.39%


Sign up for our free newsletter

Recommend Webb-site to a friend

Copyright & disclaimer, Privacy policy

Back to top